createdAt,value
2022-08-26T00:00:57.029Z,1005.70
2022-08-26T00:01:57.161Z,1005.70
2022-08-26T00:02:56.975Z,1005.76
2022-08-26T00:03:56.982Z,1005.73
2022-08-26T00:04:56.918Z,1005.75
2022-08-26T00:05:56.894Z,1005.72
2022-08-26T00:06:56.878Z,1005.74
2022-08-26T00:07:56.846Z,1005.76
2022-08-26T00:08:56.826Z,1005.76
2022-08-26T00:09:56.785Z,1005.75
2022-08-26T00:10:56.762Z,1005.76
2022-08-26T00:11:56.732Z,1005.74
2022-08-26T00:12:56.703Z,1005.75
2022-08-26T00:13:56.679Z,1005.77
2022-08-26T00:14:56.649Z,1005.77
2022-08-26T00:15:56.625Z,1005.75
2022-08-26T00:16:56.624Z,1005.78
2022-08-26T00:17:56.568Z,1005.82
2022-08-26T00:18:56.547Z,1005.86
2022-08-26T00:19:56.512Z,1005.87
2022-08-26T00:20:56.487Z,1005.89
2022-08-26T00:21:56.458Z,1005.84
2022-08-26T00:22:56.429Z,1005.84
2022-08-26T00:23:56.401Z,1005.83
2022-08-26T00:24:56.377Z,1005.85
2022-08-26T00:25:56.826Z,1005.79
2022-08-26T00:26:56.321Z,1005.84
2022-08-26T00:27:56.294Z,1005.86
2022-08-26T00:28:56.270Z,1005.84
2022-08-26T00:29:56.241Z,1005.84
2022-08-26T00:30:56.212Z,1005.82
2022-08-26T00:31:56.221Z,1005.84
2022-08-26T00:32:56.159Z,1005.89
2022-08-26T00:33:56.133Z,1005.91
2022-08-26T00:34:56.113Z,1005.91
2022-08-26T00:35:56.078Z,1005.83
2022-08-26T00:36:56.048Z,1005.88
2022-08-26T00:37:56.023Z,1005.88
2022-08-26T00:38:55.988Z,1005.91
2022-08-26T00:39:56.025Z,1005.96
2022-08-26T00:40:55.941Z,1005.90
2022-08-26T00:41:55.911Z,1005.88
2022-08-26T00:42:55.882Z,1005.90
2022-08-26T00:43:55.853Z,1005.92
2022-08-26T00:44:55.827Z,1005.94
2022-08-26T00:45:55.855Z,1005.89
2022-08-26T00:46:55.771Z,1005.85
2022-08-26T00:47:55.744Z,1005.90
2022-08-26T00:48:55.718Z,1005.88
2022-08-26T00:49:55.688Z,1005.92
2022-08-26T00:50:55.661Z,1005.91
2022-08-26T00:51:55.630Z,1005.91
2022-08-26T00:52:55.604Z,1005.87
2022-08-26T00:53:55.580Z,1005.89
2022-08-26T00:54:55.548Z,1005.88
2022-08-26T00:55:55.528Z,1005.86
2022-08-26T00:56:55.501Z,1005.86
2022-08-26T00:57:55.465Z,1005.91
2022-08-26T00:58:55.438Z,1005.91
2022-08-26T00:59:55.413Z,1005.91
2022-08-26T01:00:55.420Z,1005.98
2022-08-26T01:01:55.396Z,1005.93
2022-08-26T01:02:55.331Z,1005.91
2022-08-26T01:03:55.307Z,1005.96
2022-08-26T01:04:56.227Z,1005.93
2022-08-26T01:05:55.246Z,1005.96
2022-08-26T01:06:55.216Z,1005.95
2022-08-26T01:07:55.189Z,1005.96
2022-08-26T01:08:55.161Z,1005.88
2022-08-26T01:09:55.135Z,1005.96
2022-08-26T01:10:55.838Z,1005.92
2022-08-26T01:11:55.077Z,1005.91
2022-08-26T01:12:55.051Z,1005.94
2022-08-26T01:13:55.021Z,1005.95
2022-08-26T01:14:54.995Z,1005.92
2022-08-26T01:15:54.972Z,1005.90
2022-08-26T01:16:54.940Z,1005.91
2022-08-26T01:17:54.911Z,1005.95
2022-08-26T01:18:54.890Z,1005.99
2022-08-26T01:19:54.857Z,1005.98
2022-08-26T01:20:57.643Z,1005.95
2022-08-26T01:21:54.800Z,1005.98
2022-08-26T01:22:54.776Z,1005.98
2022-08-26T01:23:57.499Z,1006.00
2022-08-26T01:24:54.717Z,1006.02
2022-08-26T01:25:54.693Z,1006.05
2022-08-26T01:26:54.659Z,1006.08
2022-08-26T01:27:54.629Z,1006.02
2022-08-26T01:28:54.604Z,1006.04
2022-08-26T01:29:54.592Z,1006.05
2022-08-26T01:30:54.551Z,1006.05
2022-08-26T01:31:54.601Z,1006.04
2022-08-26T01:32:54.491Z,1006.09
2022-08-26T01:33:54.463Z,1006.08
2022-08-26T01:34:54.435Z,1006.09
2022-08-26T01:35:54.405Z,1006.08
2022-08-26T01:36:54.378Z,1006.10
2022-08-26T01:37:54.353Z,1006.12
2022-08-26T01:38:54.324Z,1006.14
2022-08-26T01:39:54.419Z,1006.18
2022-08-26T01:40:54.477Z,1006.12
2022-08-26T01:41:54.238Z,1006.15
2022-08-26T01:42:54.204Z,1006.16
2022-08-26T01:43:54.182Z,1006.14
2022-08-26T01:44:54.149Z,1006.16
2022-08-26T01:45:54.202Z,1006.18
2022-08-26T01:46:54.108Z,1006.19
2022-08-26T01:47:56.797Z,1006.21
2022-08-26T01:48:54.587Z,1006.20
2022-08-26T01:49:54.012Z,1006.24
2022-08-26T01:50:53.982Z,1006.20
2022-08-26T01:51:53.955Z,1006.27
2022-08-26T01:52:54.595Z,1006.22
2022-08-26T01:53:53.899Z,1006.23
2022-08-26T01:54:53.870Z,1006.24
2022-08-26T01:55:53.846Z,1006.26
2022-08-26T01:56:53.817Z,1006.24
2022-08-26T01:57:53.790Z,1006.28
2022-08-26T01:58:53.756Z,1006.28
2022-08-26T01:59:53.732Z,1006.29
2022-08-26T02:00:53.745Z,1006.29
2022-08-26T02:01:53.676Z,1006.28
2022-08-26T02:02:53.646Z,1006.27
2022-08-26T02:03:53.620Z,1006.30
2022-08-26T02:04:53.651Z,1006.30
2022-08-26T02:05:53.562Z,1006.31
2022-08-26T02:06:53.542Z,1006.34
2022-08-26T02:07:53.508Z,1006.33
2022-08-26T02:08:53.476Z,1006.33
2022-08-26T02:09:53.450Z,1006.30
2022-08-26T02:10:54.748Z,1006.32
2022-08-26T02:11:53.390Z,1006.35
2022-08-26T02:12:53.365Z,1006.36
2022-08-26T02:13:53.442Z,1006.38
2022-08-26T02:14:53.310Z,1006.34
2022-08-26T02:15:53.313Z,1006.39
2022-08-26T02:16:53.250Z,1006.37
2022-08-26T02:17:53.234Z,1006.41
2022-08-26T02:18:53.430Z,1006.37
2022-08-26T02:19:53.163Z,1006.41
2022-08-26T02:20:53.138Z,1006.38
2022-08-26T02:21:53.112Z,1006.39
2022-08-26T02:22:53.107Z,1006.41
2022-08-26T02:23:53.054Z,1006.45
2022-08-26T02:24:53.025Z,1006.46
2022-08-26T02:25:52.999Z,1006.46
2022-08-26T02:26:52.967Z,1006.48
2022-08-26T02:27:52.939Z,1006.52
2022-08-26T02:28:52.915Z,1006.48
2022-08-26T02:29:52.884Z,1006.61
2022-08-26T02:30:55.379Z,1006.59
2022-08-26T02:31:52.910Z,1006.60
2022-08-26T02:32:52.795Z,1006.63
2022-08-26T02:33:52.769Z,1006.62
2022-08-26T02:34:52.740Z,1006.61
2022-08-26T02:35:52.712Z,1006.63
2022-08-26T02:36:52.683Z,1006.60
2022-08-26T02:37:52.656Z,1006.59
2022-08-26T02:38:53.030Z,1006.61
2022-08-26T02:39:52.732Z,1006.61
2022-08-26T02:40:52.574Z,1006.58
2022-08-26T02:41:52.546Z,1006.59
2022-08-26T02:42:52.980Z,1006.59
2022-08-26T02:43:52.489Z,1006.61
2022-08-26T02:44:52.459Z,1006.62
2022-08-26T02:45:52.434Z,1006.61
2022-08-26T02:46:52.431Z,1006.61
2022-08-26T02:47:52.509Z,1006.65
2022-08-26T02:48:52.348Z,1006.63
2022-08-26T02:49:52.318Z,1006.63
2022-08-26T02:50:52.289Z,1006.59
2022-08-26T02:51:52.259Z,1006.63
2022-08-26T02:52:52.236Z,1006.60
2022-08-26T02:53:52.204Z,1006.57
2022-08-26T02:54:52.205Z,1006.60
2022-08-26T02:55:52.144Z,1006.58
2022-08-26T02:56:52.117Z,1006.60
2022-08-26T02:57:52.090Z,1006.56
2022-08-26T02:58:52.064Z,1006.56
2022-08-26T02:59:52.036Z,1006.52
2022-08-26T03:00:53.085Z,1006.50
2022-08-26T03:01:52.035Z,1006.50
2022-08-26T03:02:51.952Z,1006.47
2022-08-26T03:03:51.922Z,1006.45
2022-08-26T03:04:58.050Z,1006.46
2022-08-26T03:05:51.866Z,1006.43
2022-08-26T03:06:52.736Z,1006.43
2022-08-26T03:07:51.809Z,1006.41
2022-08-26T03:08:51.786Z,1006.41
2022-08-26T03:09:51.755Z,1006.38
2022-08-26T03:12:23.317Z,1006.34
2022-08-26T03:13:23.290Z,1006.38
2022-08-26T03:15:27.180Z,1006.38
2022-08-26T03:16:32.201Z,1006.35
2022-08-26T03:18:31.079Z,1006.41
2022-08-26T03:19:31.035Z,1006.40
2022-08-26T03:21:34.941Z,1006.43
2022-08-26T03:22:34.909Z,1006.40
2022-08-26T03:24:38.824Z,1006.44
2022-08-26T03:25:38.796Z,1006.43
2022-08-26T03:27:43.011Z,1006.43
2022-08-26T03:28:42.662Z,1006.45
2022-08-26T03:30:46.592Z,1006.44
2022-08-26T03:31:47.035Z,1006.44
2022-08-26T03:33:50.451Z,1006.48
2022-08-26T03:34:50.415Z,1006.50
2022-08-26T03:36:54.341Z,1006.51
2022-08-26T03:37:54.295Z,1006.51
2022-08-26T03:39:58.250Z,1006.49
2022-08-26T03:40:58.168Z,1006.49
2022-08-26T03:43:02.176Z,1006.50
2022-08-26T03:44:02.053Z,1006.51
2022-08-26T03:46:06.041Z,1006.54
2022-08-26T03:47:05.968Z,1006.51
2022-08-26T03:49:09.830Z,1006.54
2022-08-26T03:50:09.807Z,1006.51
2022-08-26T03:52:02.655Z,1006.52
2022-08-26T03:53:02.649Z,1006.55
2022-08-26T03:55:06.512Z,1006.55
2022-08-26T03:56:06.481Z,1006.59
2022-08-26T03:58:10.423Z,1006.56
2022-08-26T03:59:10.358Z,1006.57
2022-08-26T04:01:14.268Z,1006.56
2022-08-26T04:02:14.234Z,1006.53
2022-08-26T04:04:18.153Z,1006.51
2022-08-26T04:05:18.107Z,1006.53
2022-08-26T04:07:22.016Z,1006.50
2022-08-26T04:08:21.982Z,1006.52
2022-08-26T04:10:28.582Z,1006.49
2022-08-26T04:11:25.861Z,1006.47
2022-08-26T04:13:29.778Z,1006.49
2022-08-26T04:14:29.747Z,1006.52
2022-08-26T04:16:33.677Z,1006.52
2022-08-26T04:17:33.614Z,1006.52
2022-08-26T04:19:37.534Z,1006.50
2022-08-26T04:20:37.488Z,1006.52
2022-08-26T04:22:30.329Z,1006.51
2022-08-26T04:23:30.301Z,1006.52
2022-08-26T04:25:34.233Z,1006.51
2022-08-26T04:26:34.172Z,1006.50
2022-08-26T04:28:38.082Z,1006.48
2022-08-26T04:29:38.055Z,1006.50
2022-08-26T04:31:42.015Z,1006.52
2022-08-26T04:32:41.926Z,1006.51
2022-08-26T04:34:45.846Z,1006.51
2022-08-26T04:35:45.801Z,1006.53
2022-08-26T04:37:49.712Z,1006.52
2022-08-26T04:38:49.681Z,1006.52
2022-08-26T04:40:54.112Z,1006.57
2022-08-26T04:41:54.064Z,1006.53
2022-08-26T04:43:57.987Z,1006.62
2022-08-26T04:44:57.930Z,1006.58
2022-08-26T04:47:01.850Z,1006.57
2022-08-26T04:48:01.806Z,1006.58
2022-08-26T04:50:05.726Z,1006.60
2022-08-26T04:51:05.684Z,1006.57
2022-08-26T04:53:09.704Z,1006.57
2022-08-26T04:54:09.567Z,1006.65
2022-08-26T04:56:13.489Z,1006.58
2022-08-26T04:57:13.451Z,1006.63
2022-08-26T04:59:18.182Z,1006.59
2022-08-26T05:00:17.321Z,1006.63
2022-08-26T05:02:10.172Z,1006.64
2022-08-26T05:03:10.392Z,1006.63
2022-08-26T05:05:14.036Z,1006.72
2022-08-26T05:06:14.008Z,1006.68
2022-08-26T05:08:17.929Z,1006.72
2022-08-26T05:09:17.882Z,1006.76
2022-08-26T05:11:22.086Z,1006.71
2022-08-26T05:12:22.550Z,1006.70
2022-08-26T05:14:25.851Z,1006.68
2022-08-26T05:15:25.796Z,1006.71
2022-08-26T05:17:30.206Z,1006.71
2022-08-26T05:18:30.172Z,1006.73
2022-08-26T05:19:30.134Z,1006.73
2022-08-26T05:20:30.114Z,1006.74
2022-08-26T05:21:30.076Z,1006.73
2022-08-26T05:22:30.049Z,1006.73
2022-08-26T05:23:30.021Z,1006.76
2022-08-26T05:24:29.989Z,1006.74
2022-08-26T05:25:29.970Z,1006.74
2022-08-26T05:26:29.934Z,1006.76
2022-08-26T05:27:29.908Z,1006.77
2022-08-26T05:28:29.881Z,1006.77
2022-08-26T05:29:29.846Z,1006.73
2022-08-26T05:30:29.825Z,1006.76
2022-08-26T05:31:29.850Z,1006.75
2022-08-26T05:32:29.777Z,1006.79
2022-08-26T05:33:29.737Z,1006.77
2022-08-26T05:34:30.399Z,1006.79
2022-08-26T05:35:29.684Z,1006.79
2022-08-26T05:36:29.656Z,1006.73
2022-08-26T05:37:29.625Z,1006.75
2022-08-26T05:38:30.272Z,1006.75
2022-08-26T05:39:29.562Z,1006.77
2022-08-26T05:40:29.594Z,1006.81
2022-08-26T05:41:34.646Z,1006.78
2022-08-26T05:42:29.492Z,1006.76
2022-08-26T05:43:29.449Z,1006.81
2022-08-26T05:44:29.422Z,1006.78
2022-08-26T05:45:29.392Z,1006.82
2022-08-26T05:46:29.412Z,1006.81
2022-08-26T05:47:29.335Z,1006.77
2022-08-26T05:48:29.308Z,1006.79
2022-08-26T05:49:29.282Z,1006.74
2022-08-26T05:50:29.256Z,1006.81
2022-08-26T05:51:30.514Z,1006.77
2022-08-26T05:52:29.196Z,1006.78
2022-08-26T05:53:29.169Z,1006.80
2022-08-26T05:54:29.148Z,1006.77
2022-08-26T05:55:29.411Z,1006.83
2022-08-26T05:56:29.089Z,1006.79
2022-08-26T05:57:29.067Z,1006.80
2022-08-26T05:58:29.667Z,1006.79
2022-08-26T05:59:28.997Z,1006.82
2022-08-26T06:00:29.071Z,1006.80
2022-08-26T06:01:29.087Z,1006.82
2022-08-26T06:02:28.980Z,1006.80
2022-08-26T06:03:28.881Z,1006.80
2022-08-26T06:04:28.855Z,1006.80
2022-08-26T06:05:28.827Z,1006.78
2022-08-26T06:06:29.354Z,1006.84
2022-08-26T06:07:28.771Z,1006.84
2022-08-26T06:08:28.742Z,1006.85
2022-08-26T06:09:28.736Z,1006.77
2022-08-26T06:10:32.584Z,1006.84
2022-08-26T06:11:28.662Z,1006.84
2022-08-26T06:12:28.630Z,1006.88
2022-08-26T06:13:31.939Z,1006.85
2022-08-26T06:14:28.574Z,1006.87
2022-08-26T06:15:28.547Z,1006.90
2022-08-26T06:16:28.514Z,1006.88
2022-08-26T06:17:28.566Z,1006.82
2022-08-26T06:18:28.897Z,1006.85
2022-08-26T06:19:32.987Z,1006.84
2022-08-26T06:20:28.406Z,1006.89
2022-08-26T06:21:28.375Z,1006.86
2022-08-26T06:22:28.348Z,1006.90
2022-08-26T06:23:28.320Z,1006.89
2022-08-26T06:24:28.286Z,1006.89
2022-08-26T06:25:28.257Z,1006.93
2022-08-26T06:26:28.234Z,1006.92
2022-08-26T06:27:32.496Z,1006.90
2022-08-26T06:28:28.181Z,1006.90
2022-08-26T06:29:28.144Z,1006.91
2022-08-26T06:30:28.119Z,1006.89
2022-08-26T06:31:28.170Z,1006.91
2022-08-26T06:32:28.164Z,1006.90
2022-08-26T06:33:28.030Z,1006.91
2022-08-26T06:34:30.593Z,1006.96
2022-08-26T06:35:27.978Z,1006.95
2022-08-26T06:36:27.950Z,1006.95
2022-08-26T06:37:27.923Z,1006.95
2022-08-26T06:38:27.891Z,1006.97
2022-08-26T06:39:27.863Z,1006.99
2022-08-26T06:40:27.940Z,1006.96
2022-08-26T06:41:27.809Z,1007.00
2022-08-26T06:42:27.786Z,1007.02
2022-08-26T06:43:27.755Z,1007.03
2022-08-26T06:44:27.748Z,1007.06
2022-08-26T06:45:27.696Z,1007.05
2022-08-26T06:46:27.792Z,1007.08
2022-08-26T06:47:27.637Z,1007.05
2022-08-26T06:48:27.609Z,1007.05
2022-08-26T06:49:27.803Z,1007.08
2022-08-26T06:50:27.555Z,1007.06
2022-08-26T06:51:27.521Z,1007.04
2022-08-26T06:52:27.500Z,1007.07
2022-08-26T06:53:27.467Z,1007.08
2022-08-26T06:54:27.451Z,1007.08
2022-08-26T06:55:27.412Z,1007.06
2022-08-26T06:56:27.387Z,1007.10
2022-08-26T06:57:27.355Z,1007.06
2022-08-26T06:58:27.331Z,1007.08
2022-08-26T06:59:27.300Z,1007.07
2022-08-26T07:00:27.272Z,1007.11
2022-08-26T07:01:27.401Z,1007.09
2022-08-26T07:02:28.475Z,1007.09
2022-08-26T07:03:27.184Z,1007.09
2022-08-26T07:04:27.784Z,1007.13
2022-08-26T07:05:27.132Z,1007.15
2022-08-26T07:06:27.103Z,1007.13
2022-08-26T07:07:27.076Z,1007.16
2022-08-26T07:08:27.184Z,1007.16
2022-08-26T07:09:27.017Z,1007.16
2022-08-26T07:10:26.988Z,1007.15
2022-08-26T07:11:26.961Z,1007.19
2022-08-26T07:12:26.930Z,1007.11
2022-08-26T07:13:30.550Z,1007.13
2022-08-26T07:14:26.880Z,1007.11
2022-08-26T07:15:31.041Z,1007.18
2022-08-26T07:16:26.822Z,1007.14
2022-08-26T07:17:26.800Z,1007.16
2022-08-26T07:18:26.771Z,1007.13
2022-08-26T07:19:30.354Z,1007.09
2022-08-26T07:20:26.710Z,1007.14
2022-08-26T07:21:26.753Z,1007.13
2022-08-26T07:22:26.653Z,1007.16
2022-08-26T07:23:26.619Z,1007.13
2022-08-26T07:24:28.528Z,1007.16
2022-08-26T07:25:26.571Z,1007.16
2022-08-26T07:26:26.539Z,1007.16
2022-08-26T07:27:26.509Z,1007.15
2022-08-26T07:28:26.482Z,1007.17
2022-08-26T07:29:26.452Z,1007.17
2022-08-26T07:30:26.425Z,1007.17
2022-08-26T07:31:26.414Z,1007.17
2022-08-26T07:32:26.371Z,1007.22
2022-08-26T07:33:26.341Z,1007.22
2022-08-26T07:34:26.328Z,1007.26
2022-08-26T07:35:26.306Z,1007.26
2022-08-26T07:36:26.254Z,1007.27
2022-08-26T07:37:26.224Z,1007.27
2022-08-26T07:38:26.206Z,1007.27
2022-08-26T07:39:26.171Z,1007.26
2022-08-26T07:40:26.269Z,1007.29
2022-08-26T07:41:26.154Z,1007.32
2022-08-26T07:42:26.090Z,1007.32
2022-08-26T07:43:26.090Z,1007.34
2022-08-26T07:44:26.031Z,1007.35
2022-08-26T07:45:26.007Z,1007.39
2022-08-26T07:46:29.974Z,1007.35
2022-08-26T07:47:26.426Z,1007.37
2022-08-26T07:48:25.923Z,1007.38
2022-08-26T07:49:25.925Z,1007.36
2022-08-26T07:50:49.268Z,1007.37
2022-08-26T07:51:25.949Z,1007.40
2022-08-26T07:52:27.246Z,1007.42
2022-08-26T07:53:25.775Z,1007.38
2022-08-26T07:54:27.150Z,1007.40
2022-08-26T07:55:25.953Z,1007.37
2022-08-26T07:56:25.692Z,1007.40
2022-08-26T07:57:25.663Z,1007.44
2022-08-26T07:58:25.641Z,1007.45
2022-08-26T07:59:25.605Z,1007.41
2022-08-26T08:00:25.583Z,1007.43
2022-08-26T08:01:25.721Z,1007.42
2022-08-26T08:02:25.520Z,1007.42
2022-08-26T08:03:25.493Z,1007.45
2022-08-26T08:04:26.621Z,1007.42
2022-08-26T08:05:33.563Z,1007.45
2022-08-26T08:06:27.347Z,1007.45
2022-08-26T08:07:44.361Z,1007.47
2022-08-26T08:08:27.346Z,1007.45
2022-08-26T08:09:25.327Z,1007.45
2022-08-26T08:10:25.384Z,1007.44
2022-08-26T08:11:25.269Z,1007.41
2022-08-26T08:12:25.243Z,1007.40
2022-08-26T08:13:25.229Z,1007.40
2022-08-26T08:14:25.205Z,1007.36
2022-08-26T08:15:25.184Z,1007.42
2022-08-26T08:16:25.189Z,1007.41
2022-08-26T08:17:25.101Z,1007.39
2022-08-26T08:18:25.076Z,1007.41
2022-08-26T08:19:25.045Z,1007.44
2022-08-26T08:20:25.016Z,1007.38
2022-08-26T08:21:24.994Z,1007.38
2022-08-26T08:22:24.964Z,1007.40
2022-08-26T08:23:24.931Z,1007.41
2022-08-26T08:24:24.904Z,1007.37
2022-08-26T08:25:24.874Z,1007.39
2022-08-26T08:26:24.852Z,1007.41
2022-08-26T08:27:24.821Z,1007.38
2022-08-26T08:28:24.792Z,1007.45
2022-08-26T08:29:24.794Z,1007.43
2022-08-26T08:30:24.741Z,1007.42
2022-08-26T08:31:54.526Z,1007.43
2022-08-26T08:32:24.680Z,1007.44
2022-08-26T08:33:24.654Z,1007.41
2022-08-26T08:34:24.620Z,1007.43
2022-08-26T08:35:24.592Z,1007.45
2022-08-26T08:36:24.625Z,1007.43
2022-08-26T08:37:24.541Z,1007.49
2022-08-26T08:38:24.517Z,1007.50
2022-08-26T08:39:24.481Z,1007.45
2022-08-26T08:40:24.522Z,1007.49
2022-08-26T08:41:24.428Z,1007.45
2022-08-26T08:42:24.402Z,1007.44
2022-08-26T08:43:24.367Z,1007.44
2022-08-26T08:45:24.311Z,1007.46
2022-08-26T08:46:24.323Z,1007.47
2022-08-26T08:47:24.327Z,1007.49
2022-08-26T08:48:27.350Z,1007.49
2022-08-26T08:49:24.203Z,1007.48
2022-08-26T08:50:24.187Z,1007.52
2022-08-26T08:51:24.155Z,1007.50
2022-08-26T08:52:24.119Z,1007.52
2022-08-26T08:53:24.090Z,1007.48
2022-08-26T08:54:24.063Z,1007.52
2022-08-26T08:55:24.031Z,1007.49
2022-08-26T08:56:24.297Z,1007.51
2022-08-26T08:57:23.977Z,1007.51
2022-08-26T08:58:23.951Z,1007.54
2022-08-26T08:59:23.927Z,1007.54
2022-08-26T09:00:30.105Z,1007.51
2022-08-26T09:01:23.914Z,1007.50
2022-08-26T09:02:23.935Z,1007.53
2022-08-26T09:03:23.812Z,1007.51
2022-08-26T09:04:23.784Z,1007.55
2022-08-26T09:05:23.757Z,1007.56
2022-08-26T09:06:23.727Z,1007.52
2022-08-26T09:07:23.742Z,1007.55
2022-08-26T09:08:23.674Z,1007.57
2022-08-26T09:09:23.640Z,1007.57
2022-08-26T09:10:23.615Z,1007.60
2022-08-26T09:11:23.587Z,1007.56
2022-08-26T09:12:29.401Z,1007.62
2022-08-26T09:13:26.120Z,1007.59
2022-08-26T09:14:23.500Z,1007.65
2022-08-26T09:15:25.434Z,1007.61
2022-08-26T09:16:23.470Z,1007.59
2022-08-26T09:17:23.422Z,1007.61
2022-08-26T09:18:23.390Z,1007.57
2022-08-26T09:19:23.407Z,1007.58
2022-08-26T09:20:23.333Z,1007.58
2022-08-26T09:21:23.308Z,1007.62
2022-08-26T09:22:30.438Z,1007.62
2022-08-26T09:24:28.638Z,1007.62
2022-08-26T09:25:27.158Z,1007.64
2022-08-26T09:27:31.678Z,1007.67
2022-08-26T09:28:31.656Z,1007.69
2022-08-26T09:30:35.626Z,1007.69
2022-08-26T09:31:35.567Z,1007.66
2022-08-26T09:33:28.431Z,1007.72
2022-08-26T09:34:28.382Z,1007.72
2022-08-26T09:36:34.449Z,1007.73
2022-08-26T09:37:32.785Z,1007.74
2022-08-26T09:38:32.720Z,1007.74
2022-08-26T09:39:32.688Z,1007.74
2022-08-26T09:40:32.697Z,1007.73
2022-08-26T09:41:32.631Z,1007.77
2022-08-26T09:42:32.604Z,1007.77
2022-08-26T09:43:32.578Z,1007.79
2022-08-26T09:44:32.546Z,1007.75
2022-08-26T09:45:32.559Z,1007.74
2022-08-26T09:46:32.912Z,1007.77
2022-08-26T09:47:32.466Z,1007.74
2022-08-26T09:48:32.448Z,1007.74
2022-08-26T09:49:35.819Z,1007.73
2022-08-26T09:50:32.382Z,1007.75
2022-08-26T09:51:32.351Z,1007.71
2022-08-26T09:52:32.327Z,1007.74
2022-08-26T09:53:32.303Z,1007.72
2022-08-26T09:54:32.457Z,1007.73
2022-08-26T09:55:32.247Z,1007.68
2022-08-26T09:56:32.216Z,1007.70
2022-08-26T09:57:32.188Z,1007.72
2022-08-26T09:58:32.160Z,1007.71
2022-08-26T09:59:32.143Z,1007.73
2022-08-26T10:00:32.099Z,1007.76
2022-08-26T10:01:32.127Z,1007.71
2022-08-26T10:02:32.055Z,1007.72
2022-08-26T10:03:32.015Z,1007.71
2022-08-26T10:04:32.063Z,1007.66
2022-08-26T10:05:31.962Z,1007.75
2022-08-26T10:06:31.938Z,1007.66
2022-08-26T10:07:31.911Z,1007.70
2022-08-26T10:08:31.880Z,1007.71
2022-08-26T10:09:31.854Z,1007.68
2022-08-26T10:10:31.829Z,1007.68
2022-08-26T10:11:31.795Z,1007.68
2022-08-26T10:12:31.768Z,1007.69
2022-08-26T10:13:31.750Z,1007.68
2022-08-26T10:14:31.712Z,1007.67
2022-08-26T10:15:31.680Z,1007.61
2022-08-26T10:16:31.704Z,1007.64
2022-08-26T10:17:31.633Z,1007.65
2022-08-26T10:18:34.749Z,1007.65
2022-08-26T10:19:41.748Z,1007.64
2022-08-26T10:20:31.580Z,1007.66
2022-08-26T10:21:31.520Z,1007.64
2022-08-26T10:22:31.496Z,1007.66
2022-08-26T10:23:31.496Z,1007.60
2022-08-26T10:24:31.456Z,1007.65
2022-08-26T10:25:31.404Z,1007.63
2022-08-26T10:26:31.382Z,1007.60
2022-08-26T10:27:31.369Z,1007.60
2022-08-26T10:28:31.323Z,1007.61
2022-08-26T10:29:31.293Z,1007.57
2022-08-26T10:30:31.263Z,1007.60
2022-08-26T10:31:38.354Z,1007.57
2022-08-26T10:32:31.340Z,1007.60
2022-08-26T10:33:31.182Z,1007.59
2022-08-26T10:34:31.152Z,1007.61
2022-08-26T10:35:31.134Z,1007.62
2022-08-26T10:36:32.276Z,1007.64
2022-08-26T10:37:31.074Z,1007.59
2022-08-26T10:38:31.042Z,1007.63
2022-08-26T10:39:31.020Z,1007.62
2022-08-26T10:40:31.037Z,1007.62
2022-08-26T10:41:30.959Z,1007.56
2022-08-26T10:42:30.936Z,1007.58
2022-08-26T10:43:30.904Z,1007.59
2022-08-26T10:44:30.876Z,1007.57
2022-08-26T10:45:30.893Z,1007.56
2022-08-26T10:46:30.819Z,1007.52
2022-08-26T10:47:30.795Z,1007.48
2022-08-26T10:48:35.321Z,1007.49
2022-08-26T10:49:30.737Z,1007.50
2022-08-26T10:50:30.713Z,1007.47
2022-08-26T10:51:30.682Z,1007.47
2022-08-26T10:52:30.657Z,1007.48
2022-08-26T10:53:32.672Z,1007.44
2022-08-26T10:54:30.596Z,1007.46
2022-08-26T10:55:30.571Z,1007.46
2022-08-26T10:56:30.543Z,1007.43
2022-08-26T10:57:30.514Z,1007.44
2022-08-26T10:58:30.485Z,1007.45
2022-08-26T10:59:30.458Z,1007.42
2022-08-26T11:00:31.416Z,1007.40
2022-08-26T11:01:30.417Z,1007.43
2022-08-26T11:02:30.379Z,1007.42
2022-08-26T11:03:30.351Z,1007.43
2022-08-26T11:04:30.408Z,1007.42
2022-08-26T11:05:30.349Z,1007.44
2022-08-26T11:06:30.263Z,1007.42
2022-08-26T11:07:30.241Z,1007.40
2022-08-26T11:08:30.212Z,1007.45
2022-08-26T11:09:30.181Z,1007.46
2022-08-26T11:10:30.153Z,1007.46
2022-08-26T11:11:30.127Z,1007.48
2022-08-26T11:12:30.107Z,1007.43
2022-08-26T11:13:30.067Z,1007.49
2022-08-26T11:14:33.032Z,1007.50
2022-08-26T11:15:30.015Z,1007.47
2022-08-26T11:16:30.022Z,1007.47
2022-08-26T11:17:29.960Z,1007.47
2022-08-26T11:18:29.933Z,1007.49
2022-08-26T11:19:45.348Z,1007.45
2022-08-26T11:20:29.875Z,1007.42
2022-08-26T11:21:29.851Z,1007.45
2022-08-26T11:22:29.820Z,1007.42
2022-08-26T11:23:29.792Z,1007.43
2022-08-26T11:24:29.764Z,1007.43
2022-08-26T11:25:30.877Z,1007.41
2022-08-26T11:26:37.646Z,1007.42
2022-08-26T11:27:29.679Z,1007.43
2022-08-26T11:28:29.654Z,1007.38
2022-08-26T11:29:29.622Z,1007.41
2022-08-26T11:30:29.606Z,1007.39
2022-08-26T11:31:29.623Z,1007.38
2022-08-26T11:32:29.541Z,1007.40
2022-08-26T11:33:29.522Z,1007.35
2022-08-26T11:34:29.485Z,1007.37
2022-08-26T11:35:29.455Z,1007.40
2022-08-26T11:36:29.427Z,1007.37
2022-08-26T11:37:29.400Z,1007.41
2022-08-26T11:38:29.375Z,1007.41
2022-08-26T11:39:29.346Z,1007.38
2022-08-26T11:40:29.396Z,1007.40
2022-08-26T11:41:29.291Z,1007.39
2022-08-26T11:42:29.263Z,1007.36
2022-08-26T11:43:29.835Z,1007.40
2022-08-26T11:44:29.212Z,1007.38
2022-08-26T11:45:29.250Z,1007.40
2022-08-26T11:46:29.152Z,1007.40
2022-08-26T11:47:29.354Z,1007.39
2022-08-26T11:48:29.100Z,1007.36
2022-08-26T11:49:29.084Z,1007.35
2022-08-26T11:50:29.039Z,1007.39
2022-08-26T11:51:29.043Z,1007.37
2022-08-26T11:52:28.985Z,1007.36
2022-08-26T11:53:28.955Z,1007.41
2022-08-26T11:54:35.110Z,1007.41
2022-08-26T11:55:28.909Z,1007.42
2022-08-26T11:56:31.663Z,1007.39
2022-08-26T11:57:28.846Z,1007.42
2022-08-26T11:58:28.824Z,1007.40
2022-08-26T11:59:28.830Z,1007.44
2022-08-26T12:00:33.334Z,1007.43
2022-08-26T12:01:28.736Z,1007.42
2022-08-26T12:02:28.716Z,1007.42
2022-08-26T12:03:28.752Z,1007.45
2022-08-26T12:04:28.763Z,1007.40
2022-08-26T12:05:30.966Z,1007.44
2022-08-26T12:06:28.599Z,1007.45
2022-08-26T12:07:28.571Z,1007.43
2022-08-26T12:08:28.541Z,1007.42
2022-08-26T12:09:28.527Z,1007.44
2022-08-26T12:10:29.394Z,1007.42
2022-08-26T12:11:28.456Z,1007.48
2022-08-26T12:12:31.735Z,1007.46
2022-08-26T12:13:28.401Z,1007.48
2022-08-26T12:14:28.378Z,1007.44
2022-08-26T12:15:29.640Z,1007.46
2022-08-26T12:16:28.386Z,1007.41
2022-08-26T12:17:28.298Z,1007.40
2022-08-26T12:18:29.487Z,1007.45
2022-08-26T12:19:28.235Z,1007.44
2022-08-26T12:20:28.210Z,1007.49
2022-08-26T12:21:28.188Z,1007.47
2022-08-26T12:22:28.158Z,1007.51
2022-08-26T12:23:28.123Z,1007.46
2022-08-26T12:24:28.100Z,1007.45
2022-08-26T12:25:28.070Z,1007.49
2022-08-26T12:26:28.235Z,1007.48
2022-08-26T12:27:28.018Z,1007.48
2022-08-26T12:28:27.990Z,1007.53
2022-08-26T12:29:28.010Z,1007.48
2022-08-26T12:30:27.936Z,1007.49
2022-08-26T12:31:27.949Z,1007.52
2022-08-26T12:32:27.880Z,1007.55
2022-08-26T12:33:27.844Z,1007.51
2022-08-26T12:34:27.821Z,1007.55
2022-08-26T12:35:27.792Z,1007.54
2022-08-26T12:36:28.619Z,1007.55
2022-08-26T12:37:27.737Z,1007.55
2022-08-26T12:38:27.715Z,1007.60
2022-08-26T12:39:27.681Z,1007.55
2022-08-26T12:40:27.688Z,1007.62
2022-08-26T12:41:27.626Z,1007.54
2022-08-26T12:42:27.595Z,1007.51
2022-08-26T12:43:27.568Z,1007.52
2022-08-26T12:44:27.547Z,1007.58
2022-08-26T12:45:27.571Z,1007.56
2022-08-26T12:46:27.488Z,1007.55
2022-08-26T12:47:40.079Z,1007.53
2022-08-26T12:48:27.433Z,1007.55
2022-08-26T12:49:27.404Z,1007.61
2022-08-26T12:50:27.377Z,1007.56
2022-08-26T12:51:27.354Z,1007.55
2022-08-26T12:52:27.323Z,1007.52
2022-08-26T12:53:27.298Z,1007.51
2022-08-26T12:54:27.264Z,1007.52
2022-08-26T12:55:27.233Z,1007.46
2022-08-26T12:56:27.208Z,1007.44